Time;durP1;ratioP1;P1;durP2;ratioP2;P2;SDS_P1;SDS_P2;PMS_P1;PMS_P2;Temp;Humidity;BMP_temperature;BMP_pressure;BME280_temperature;BME280_humidity;BME280_pressure;Samples;Min_cycle;Max_cycle;Signal;HPM_P1;HPM_P2
2023/04/19 00:02:22;;;;;;;6.47;5.07;;;12.20;99.90;;;;;;4983988;28;20217;-72
2023/04/19 00:04:50;;;;;;;5.90;4.43;;;12.10;99.90;;;;;;5012896;28;20474;-74
2023/04/19 00:07:19;;;;;;;5.47;4.45;;;12.10;99.90;;;;;;4994875;28;20096;-71
2023/04/19 00:09:46;;;;;;;5.53;4.28;;;12.10;99.90;;;;;;5012195;28;20104;-72
2023/04/19 00:12:13;;;;;;;7.13;4.65;;;11.90;99.90;;;;;;5003807;28;20493;-72
2023/04/19 00:14:41;;;;;;;6.22;4.88;;;11.90;99.90;;;;;;5028559;28;20121;-71
2023/04/19 00:17:10;;;;;;;6.13;4.30;;;11.80;99.90;;;;;;4994917;28;20038;-71
2023/04/19 00:19:37;;;;;;;6.18;4.55;;;11.70;99.90;;;;;;5014965;28;20046;-73
2023/04/19 00:22:05;;;;;;;6.05;4.22;;;11.70;99.90;;;;;;5031512;28;20114;-70
2023/04/19 00:24:32;;;;;;;7.88;4.10;;;11.90;99.90;;;;;;5013868;28;20091;-70
2023/04/19 00:27:00;;;;;;;5.75;4.40;;;11.80;99.90;;;;;;5031465;28;20065;-72
2023/04/19 00:29:28;;;;;;;5.93;4.63;;;11.70;99.90;;;;;;5011671;28;20501;-72
2023/04/19 00:31:55;;;;;;;5.55;4.13;;;11.70;99.90;;;;;;5030516;28;20485;-70
2023/04/19 00:34:31;;;;;;;5.72;4.20;;;11.70;99.90;;;;;;5028479;28;20212;-69
2023/04/19 00:36:58;;;;;;;6.45;4.35;;;11.80;99.90;;;;;;5040371;28;20085;-73
2023/04/19 00:39:26;;;;;;;6.25;4.32;;;11.80;99.90;;;;;;5046368;28;20041;-69
2023/04/19 00:41:55;;;;;;;6.32;4.30;;;11.90;99.90;;;;;;5029731;28;20049;-68
2023/04/19 00:44:23;;;;;;;6.72;3.92;;;11.90;99.90;;;;;;5026070;28;20041;-74
2023/04/19 00:46:50;;;;;;;6.35;4.28;;;11.90;99.90;;;;;;5046089;28;20400;-74
2023/04/19 00:49:19;;;;;;;5.10;3.97;;;12.00;99.90;;;;;;5044938;28;20036;-72
2023/04/19 00:51:48;;;;;;;6.03;4.40;;;12.10;99.90;;;;;;5026461;28;20049;-72
2023/04/19 00:54:16;;;;;;;6.65;4.63;;;11.90;99.90;;;;;;5030905;28;20420;-72
2023/04/19 00:56:44;;;;;;;5.13;4.00;;;11.90;99.90;;;;;;5024857;28;20063;-72
2023/04/19 00:59:14;;;;;;;5.68;4.28;;;11.90;99.90;;;;;;5048038;28;20110;-71
2023/04/19 01:01:41;;;;;;;5.13;4.00;;;12.00;99.90;;;;;;5011485;28;20481;-70
2023/04/19 01:04:10;;;;;;;6.20;4.53;;;11.80;99.90;;;;;;5010088;28;20041;-71
2023/04/19 01:06:40;;;;;;;5.05;3.83;;;11.70;99.90;;;;;;5031740;28;20048;-72
2023/04/19 01:09:08;;;;;;;5.50;4.28;;;11.70;99.90;;;;;;5045003;28;20393;-71
2023/04/19 01:11:35;;;;;;;5.25;4.20;;;11.70;99.90;;;;;;5016609;28;20072;-74
2023/04/19 01:14:03;;;;;;;4.60;3.75;;;11.90;99.90;;;;;;5033255;28;20389;-71
2023/04/19 01:16:32;;;;;;;4.95;3.90;;;11.80;99.90;;;;;;5026403;28;20060;-72
2023/04/19 01:18:59;;;;;;;5.45;3.95;;;11.80;99.90;;;;;;5020838;28;20042;-72
2023/04/19 01:21:29;;;;;;;4.80;3.78;;;11.80;99.90;;;;;;5049796;28;20057;-73
2023/04/19 01:23:56;;;;;;;5.85;4.50;;;11.70;99.90;;;;;;5040883;28;20041;-72
2023/04/19 01:26:25;;;;;;;5.28;4.22;;;11.80;99.90;;;;;;5029093;28;20045;-72
2023/04/19 01:28:52;;;;;;;5.38;4.30;;;11.80;99.90;;;;;;5022890;28;20454;-74
2023/04/19 01:31:19;;;;;;;5.35;4.15;;;11.80;99.90;;;;;;5047457;28;20124;-72
2023/04/19 01:33:47;;;;;;;7.00;4.55;;;11.80;99.90;;;;;;5013314;28;20038;-74
2023/04/19 01:36:14;;;;;;;6.55;4.35;;;11.80;99.90;;;;;;5047621;28;20072;-72
2023/04/19 01:38:42;;;;;;;5.63;4.32;;;11.70;99.90;;;;;;5032433;28;20041;-72
2023/04/19 01:41:09;;;;;;;5.65;4.10;;;11.80;99.90;;;;;;5031602;28;20037;-72
2023/04/19 01:43:37;;;;;;;6.47;4.93;;;11.70;99.90;;;;;;5042626;28;20120;-71
2023/04/19 01:46:04;;;;;;;5.90;4.65;;;11.80;99.90;;;;;;5026350;28;20045;-73
2023/04/19 01:48:31;;;;;;;6.65;4.70;;;11.80;99.90;;;;;;5033261;28;20120;-73
2023/04/19 01:50:59;;;;;;;6.28;4.80;;;11.80;99.90;;;;;;5036300;28;20455;-73
2023/04/19 01:53:26;;;;;;;6.90;4.50;;;11.70;99.90;;;;;;5036479;28;20048;-74
2023/04/19 01:55:54;;;;;;;6.53;4.63;;;11.70;99.90;;;;;;5020184;28;20051;-71
2023/04/19 01:58:21;;;;;;;5.88;4.60;;;11.70;99.90;;;;;;5040983;28;20404;-71
2023/04/19 02:00:49;;;;;;;5.40;4.38;;;11.70;99.90;;;;;;5035928;28;20056;-72
2023/04/19 02:03:16;;;;;;;6.10;5.03;;;11.80;99.90;;;;;;5035770;28;20106;-72
2023/04/19 02:05:45;;;;;;;9.80;4.63;;;11.70;99.90;;;;;;5039802;28;20128;-71
2023/04/19 02:08:12;;;;;;;5.60;3.85;;;11.80;99.90;;;;;;5020923;28;20482;-71
2023/04/19 02:10:40;;;;;;;5.65;4.43;;;11.80;99.90;;;;;;5023880;28;20053;-72
2023/04/19 02:13:07;;;;;;;5.38;4.03;;;11.60;99.90;;;;;;5050698;28;20048;-70
2023/04/19 02:15:36;;;;;;;5.55;3.92;;;11.70;99.90;;;;;;5027708;28;20048;-70
2023/04/19 02:18:05;;;;;;;5.47;4.22;;;11.70;99.90;;;;;;5045548;28;20478;-71
2023/04/19 02:20:32;;;;;;;6.60;4.07;;;11.70;99.90;;;;;;5016554;28;20057;-70
2023/04/19 02:23:00;;;;;;;5.55;4.03;;;11.60;99.90;;;;;;5035000;28;20049;-72
2023/04/19 02:25:27;;;;;;;5.47;4.05;;;11.80;99.90;;;;;;5027955;28;20453;-72
2023/04/19 02:27:54;;;;;;;5.68;4.10;;;11.80;99.90;;;;;;5012659;28;20067;-72
2023/04/19 02:30:22;;;;;;;6.18;4.85;;;11.70;99.90;;;;;;5050584;28;20383;-70
2023/04/19 02:32:49;;;;;;;6.18;4.57;;;11.70;99.90;;;;;;5031342;28;20492;-71
2023/04/19 02:35:17;;;;;;;5.43;4.10;;;11.80;99.90;;;;;;5023169;28;20090;-73
2023/04/19 02:37:44;;;;;;;7.20;4.30;;;11.90;99.90;;;;;;5004279;28;20111;-71
2023/04/19 02:40:12;;;;;;;7.72;4.45;;;12.00;99.90;;;;;;5023776;28;20037;-73
2023/04/19 02:42:39;;;;;;;5.22;4.20;;;11.90;99.90;;;;;;5007317;28;20041;-72
2023/04/19 02:45:09;;;;;;;5.10;4.33;;;11.80;99.90;;;;;;5027035;28;20060;-70
2023/04/19 02:47:37;;;;;;;5.03;4.00;;;11.60;99.90;;;;;;5015609;28;20509;-72
2023/04/19 02:50:05;;;;;;;5.30;4.10;;;11.60;99.90;;;;;;5021321;28;20124;-71
2023/04/19 02:52:32;;;;;;;7.53;4.35;;;11.50;99.90;;;;;;5034122;28;20048;-70
2023/04/19 02:54:59;;;;;;;4.57;3.88;;;11.50;99.90;;;;;;5012205;28;20041;-70
2023/04/19 02:57:27;;;;;;;5.35;4.38;;;11.40;99.90;;;;;;5035282;28;20037;-73
2023/04/19 02:59:54;;;;;;;5.63;4.25;;;11.50;99.90;;;;;;5027212;28;20095;-73
2023/04/19 03:02:21;;;;;;;6.20;4.30;;;11.40;99.90;;;;;;5024086;28;20133;-71
2023/04/19 03:04:49;;;;;;;5.28;4.13;;;11.40;99.90;;;;;;5038860;28;20033;-73
2023/04/19 03:07:16;;;;;;;5.63;4.22;;;11.40;99.90;;;;;;5015032;28;20497;-70
2023/04/19 03:09:43;;;;;;;5.15;4.40;;;11.50;99.90;;;;;;5021006;28;20041;-73
2023/04/19 03:12:11;;;;;;;6.22;4.28;;;11.60;99.90;;;;;;5022086;28;20072;-71
2023/04/19 03:14:38;;;;;;;6.32;4.40;;;11.50;99.90;;;;;;5053125;28;20045;-72
2023/04/19 03:17:06;;;;;;;11.23;4.68;;;11.50;99.90;;;;;;5040219;28;20045;-72
2023/04/19 03:19:33;;;;;;;5.18;4.10;;;11.50;99.90;;;;;;5028076;28;20037;-72
2023/04/19 03:22:00;;;;;;;5.50;4.20;;;11.50;99.90;;;;;;5015386;28;20083;-71
2023/04/19 03:24:31;;;;;;;6.78;4.38;;;11.50;99.90;;;;;;5027754;28;20140;-72
2023/04/19 03:27:02;;;;;;;5.30;4.38;;;11.50;99.90;;;;;;5043840;28;20111;-73
2023/04/19 03:29:29;;;;;;;6.50;4.60;;;11.60;99.90;;;;;;5044774;28;20046;-71
2023/04/19 03:31:56;;;;;;;6.15;4.78;;;11.60;99.90;;;;;;5042826;28;20112;-72
2023/04/19 03:34:24;;;;;;;6.93;4.70;;;11.80;99.90;;;;;;5028087;28;20047;-71
2023/04/19 03:36:51;;;;;;;8.32;4.90;;;11.70;99.90;;;;;;5046464;28;20346;-71
2023/04/19 03:39:18;;;;;;;6.03;4.72;;;11.80;99.90;;;;;;5034502;28;20048;-72
2023/04/19 03:41:46;;;;;;;6.43;5.40;;;11.90;99.90;;;;;;5034266;28;20139;-71
2023/04/19 03:44:13;;;;;;;8.35;5.10;;;11.80;99.90;;;;;;5032620;28;20509;-71
2023/04/19 03:46:41;;;;;;;13.93;6.55;;;11.80;99.90;;;;;;5051616;28;20059;-73
2023/04/19 03:49:09;;;;;;;7.70;5.75;;;11.80;99.90;;;;;;5035022;28;20040;-72
2023/04/19 03:51:36;;;;;;;9.38;6.25;;;11.70;99.90;;;;;;5025153;28;20144;-71
2023/04/19 03:54:04;;;;;;;9.20;6.47;;;11.80;99.90;;;;;;5039140;28;20033;-72
2023/04/19 03:56:31;;;;;;;8.48;5.95;;;11.80;99.90;;;;;;5033945;28;20055;-70
2023/04/19 03:58:59;;;;;;;7.55;5.90;;;11.90;99.90;;;;;;5033645;28;20056;-71
2023/04/19 04:01:26;;;;;;;9.88;5.57;;;11.80;99.90;;;;;;5038170;28;20489;-73
2023/04/19 04:03:54;;;;;;;6.93;5.25;;;11.70;99.90;;;;;;5062288;23;20056;-72
2023/04/19 04:06:21;;;;;;;10.00;6.82;;;11.50;99.90;;;;;;5055106;28;20044;-73
2023/04/19 04:08:49;;;;;;;7.53;5.43;;;11.50;99.90;;;;;;5063145;28;20032;-73
2023/04/19 04:11:16;;;;;;;7.43;5.60;;;11.60;99.90;;;;;;5088805;28;20038;-71
2023/04/19 04:13:45;;;;;;;8.25;5.55;;;11.50;99.90;;;;;;5086306;28;20036;-71
2023/04/19 04:16:12;;;;;;;8.45;6.18;;;11.60;99.90;;;;;;5071444;28;20039;-73
2023/04/19 04:18:40;;;;;;;7.78;6.00;;;11.70;99.90;;;;;;5089327;28;20384;-72
2023/04/19 04:21:07;;;;;;;7.60;5.63;;;11.70;99.90;;;;;;5074094;28;20051;-73
2023/04/19 04:23:35;;;;;;;8.32;5.72;;;11.60;99.90;;;;;;5057696;28;20044;-72
2023/04/19 04:26:03;;;;;;;10.05;6.22;;;11.70;99.90;;;;;;5079949;28;20432;-74
2023/04/19 04:28:38;;;;;;;10.85;7.25;;;11.80;99.90;;;;;;5062175;28;20075;-71
2023/04/19 04:31:05;;;;;;;11.20;7.70;;;11.90;99.90;;;;;;5078557;28;20033;-71
2023/04/19 04:33:32;;;;;;;14.55;7.85;;;12.00;99.90;;;;;;5073690;28;20040;-70
2023/04/19 04:36:00;;;;;;;8.45;6.25;;;12.00;99.90;;;;;;5075131;28;20376;-71
2023/04/19 04:38:27;;;;;;;8.95;6.00;;;12.00;99.90;;;;;;5082259;28;20103;-70
2023/04/19 04:40:58;;;;;;;7.90;6.20;;;11.90;99.90;;;;;;5082425;28;20036;-72
2023/04/19 04:43:28;;;;;;;8.85;5.13;;;12.00;99.90;;;;;;5074843;28;20120;-72
2023/04/19 04:45:58;;;;;;;7.88;5.55;;;12.10;99.90;;;;;;5061951;28;20081;-71
2023/04/19 04:48:25;;;;;;;7.35;5.30;;;12.10;99.90;;;;;;5082880;28;20040;-70
2023/04/19 04:50:52;;;;;;;9.95;5.43;;;12.10;99.90;;;;;;5067212;28;20047;-71
2023/04/19 04:53:20;;;;;;;8.07;5.28;;;12.00;99.90;;;;;;5081579;28;20761;-69
2023/04/19 04:55:47;;;;;;;9.00;6.05;;;12.10;99.90;;;;;;5090879;28;20044;-73
2023/04/19 04:58:14;;;;;;;10.32;6.47;;;12.00;99.90;;;;;;5060198;28;20048;-73
2023/04/19 05:00:42;;;;;;;9.05;6.43;;;12.00;99.90;;;;;;5053735;28;20044;-72
2023/04/19 05:03:09;;;;;;;8.85;6.53;;;11.90;99.90;;;;;;5060904;28;20385;-73
2023/04/19 05:05:37;;;;;;;12.80;6.93;;;11.80;99.90;;;;;;5074396;28;20508;-73
2023/04/19 05:08:05;;;;;;;14.52;6.70;;;11.90;99.90;;;;;;5057376;23;20040;-70
2023/04/19 05:10:32;;;;;;;9.40;6.10;;;11.80;99.90;;;;;;5074516;28;20383;-69
2023/04/19 05:13:00;;;;;;;8.73;6.05;;;11.80;99.90;;;;;;5081809;28;20054;-71
2023/04/19 05:15:27;;;;;;;9.85;6.40;;;11.80;99.90;;;;;;5083744;28;20371;-70
2023/04/19 05:17:55;;;;;;;8.52;6.47;;;12.00;99.90;;;;;;5075475;28;20047;-72
2023/04/19 05:20:22;;;;;;;9.82;6.68;;;12.10;99.90;;;;;;5061409;28;20031;-71
2023/04/19 05:22:49;;;;;;;10.02;6.85;;;12.00;99.90;;;;;;5090784;28;20478;-71
2023/04/19 05:25:16;;;;;;;11.77;6.72;;;12.00;99.90;;;;;;5091136;28;20103;-71
2023/04/19 05:27:44;;;;;;;10.45;6.78;;;12.20;99.90;;;;;;5107108;28;20537;-73
2023/04/19 05:30:11;;;;;;;10.70;6.90;;;12.20;99.90;;;;;;5061463;28;20035;-73
2023/04/19 05:32:41;;;;;;;10.13;6.28;;;12.30;99.90;;;;;;5090544;28;20042;-74
2023/04/19 05:35:10;;;;;;;8.68;5.93;;;12.40;99.90;;;;;;5109016;28;20028;-74
2023/04/19 05:37:38;;;;;;;53.17;28.92;;;12.50;99.90;;;;;;5089854;28;20040;-77
2023/04/19 05:40:08;;;;;;;74.25;40.80;;;12.90;99.90;;;;;;5093134;28;20071;-75
2023/04/19 05:42:37;;;;;;;170.45;90.55;;;13.20;99.90;;;;;;5092054;28;20055;-74
2023/04/19 05:45:06;;;;;;;60.65;38.70;;;13.50;99.90;;;;;;5101697;28;20096;-75
2023/04/19 05:47:33;;;;;;;34.20;20.27;;;13.50;99.90;;;;;;5103474;28;20074;-72
2023/04/19 05:50:02;;;;;;;240.65;135.70;;;13.20;99.90;;;;;;5104401;28;20352;-72
2023/04/19 05:52:30;;;;;;;22.85;18.58;;;13.20;99.90;;;;;;5101105;28;20514;-73
2023/04/19 05:54:58;;;;;;;11.57;8.75;;;13.20;99.90;;;;;;5103668;28;20387;-72
2023/04/19 05:57:25;;;;;;;9.82;6.65;;;13.00;99.90;;;;;;5108949;28;20383;-73
2023/04/19 05:59:52;;;;;;;10.43;6.70;;;13.00;99.90;;;;;;5102743;28;20537;-73
2023/04/19 06:02:19;;;;;;;8.68;6.38;;;13.10;99.90;;;;;;5097801;28;20036;-73
2023/04/19 06:04:48;;;;;;;11.55;6.72;;;13.10;99.90;;;;;;5102051;28;20040;-69
2023/04/19 06:07:16;;;;;;;8.88;6.70;;;13.10;99.90;;;;;;5107866;28;20575;-70
2023/04/19 06:09:57;;;;;;;11.02;7.00;;;13.20;99.90;;;;;;5109170;28;20042;-73
2023/04/19 06:12:24;;;;;;;12.75;6.00;;;13.20;99.90;;;;;;5090988;28;20434;-73
2023/04/19 06:14:52;;;;;;;9.35;6.38;;;13.30;99.90;;;;;;5108639;28;20036;-73
2023/04/19 06:17:23;;;;;;;9.75;6.40;;;13.20;99.90;;;;;;5108879;28;20048;-73
2023/04/19 06:19:53;;;;;;;9.40;6.63;;;13.30;99.90;;;;;;5107166;28;20036;-73
2023/04/19 06:22:20;;;;;;;13.00;6.40;;;13.30;99.90;;;;;;5082296;28;20044;-73
2023/04/19 06:24:48;;;;;;;8.40;5.97;;;13.30;99.90;;;;;;5072358;28;20462;-73
2023/04/19 06:27:16;;;;;;;15.70;7.93;;;13.40;99.90;;;;;;5083844;28;20043;-72
2023/04/19 06:29:43;;;;;;;12.57;6.78;;;13.40;99.90;;;;;;5089239;28;20384;-70
2023/04/19 06:32:10;;;;;;;9.60;6.80;;;13.40;99.90;;;;;;5078982;28;20234;-71
2023/04/19 06:34:37;;;;;;;9.98;6.45;;;13.50;99.90;;;;;;5085972;28;20471;-73
2023/04/19 06:37:05;;;;;;;10.30;6.43;;;13.60;99.90;;;;;;5107827;28;20439;-72
2023/04/19 06:39:32;;;;;;;9.80;6.13;;;13.80;99.90;;;;;;5094227;28;20402;-73
2023/04/19 06:41:59;;;;;;;10.88;6.85;;;13.90;99.90;;;;;;5092177;28;20302;-73
2023/04/19 06:44:27;;;;;;;11.27;6.85;;;13.90;99.90;;;;;;5093269;28;20051;-72
2023/04/19 06:46:54;;;;;;;11.93;6.38;;;13.80;99.90;;;;;;5076670;28;20388;-72
2023/04/19 06:49:21;;;;;;;12.35;7.18;;;13.70;99.90;;;;;;5090336;28;20075;-73
2023/04/19 06:51:49;;;;;;;11.85;6.78;;;13.70;99.90;;;;;;5095296;28;20043;-73
2023/04/19 06:54:16;;;;;;;11.05;6.72;;;13.70;99.90;;;;;;5096100;28;20044;-72
2023/04/19 06:56:46;;;;;;;9.20;5.82;;;13.60;99.90;;;;;;5095938;28;20040;-73
2023/04/19 06:59:18;;;;;;;7.63;4.88;;;13.20;99.90;;;;;;5102103;28;20074;-71
2023/04/19 07:01:47;;;;;;;7.00;5.03;;;13.10;99.90;;;;;;5081667;28;20479;-72
2023/04/19 07:04:16;;;;;;;6.78;4.95;;;13.10;99.90;;;;;;5075550;28;20040;-71
2023/04/19 07:06:48;;;;;;;6.78;4.97;;;13.00;99.90;;;;;;5074841;28;20124;-71
2023/04/19 07:09:15;;;;;;;9.13;5.07;;;13.00;99.90;;;;;;5066418;28;20143;-71
2023/04/19 07:11:43;;;;;;;8.43;5.30;;;13.00;99.90;;;;;;5090113;28;20051;-74
2023/04/19 07:14:10;;;;;;;7.32;4.93;;;13.10;99.90;;;;;;5094755;28;20067;-71
2023/04/19 07:16:38;;;;;;;6.40;4.90;;;13.00;99.90;;;;;;5077656;28;20050;-72
2023/04/19 07:19:05;;;;;;;6.18;4.65;;;12.80;99.90;;;;;;5094728;28;20036;-72
2023/04/19 07:21:33;;;;;;;7.47;4.75;;;13.00;99.90;;;;;;5081184;28;20040;-70
2023/04/19 07:24:01;;;;;;;8.18;5.53;;;13.20;99.90;;;;;;5085543;28;20039;-71
2023/04/19 07:26:28;;;;;;;9.90;5.50;;;13.20;99.90;;;;;;5112873;28;20043;-72
2023/04/19 07:28:55;;;;;;;10.68;5.22;;;13.40;99.90;;;;;;5095335;28;20451;-72
2023/04/19 07:31:24;;;;;;;7.07;4.55;;;13.40;99.90;;;;;;5094705;28;20035;-72
2023/04/19 07:33:52;;;;;;;8.40;5.72;;;13.00;99.90;;;;;;5113607;28;20049;-72
2023/04/19 07:36:20;;;;;;;8.18;4.80;;;13.40;99.90;;;;;;5094926;28;20410;-72
2023/04/19 07:38:47;;;;;;;10.60;5.20;;;13.70;99.90;;;;;;5083190;28;20052;-72
2023/04/19 07:41:15;;;;;;;8.25;5.28;;;13.90;99.90;;;;;;5106239;28;20036;-73
2023/04/19 07:43:42;;;;;;;7.13;4.57;;;14.00;99.90;;;;;;5074929;28;20384;-73
2023/04/19 07:46:15;;;;;;;7.80;4.47;;;14.10;99.90;;;;;;5087336;28;20039;-74
2023/04/19 07:48:42;;;;;;;6.72;4.32;;;14.00;99.90;;;;;;5106096;28;20145;-72
2023/04/19 07:51:11;;;;;;;8.00;4.95;;;14.00;99.90;;;;;;5092223;28;20456;-72
2023/04/19 07:53:40;;;;;;;6.88;4.80;;;14.00;99.90;;;;;;5090068;28;20036;-71
2023/04/19 07:56:08;;;;;;;8.55;5.15;;;13.60;99.90;;;;;;5085684;28;20048;-71
2023/04/19 07:58:40;;;;;;;6.93;4.63;;;13.80;99.90;;;;;;5091459;28;20046;-72
2023/04/19 08:01:07;;;;;;;8.82;4.93;;;14.00;99.90;;;;;;5094985;28;20043;-72
2023/04/19 08:03:36;;;;;;;5.97;4.22;;;13.80;99.90;;;;;;5112276;28;20043;-73
2023/04/19 08:06:07;;;;;;;6.82;4.72;;;13.20;99.90;;;;;;5094368;28;20028;-71
2023/04/19 08:08:35;;;;;;;7.80;4.40;;;13.30;99.90;;;;;;5112065;28;20414;-72
2023/04/19 08:11:03;;;;;;;9.45;4.72;;;13.20;99.90;;;;;;5064892;28;20506;-72
2023/04/19 08:13:31;;;;;;;7.10;4.82;;;13.30;99.90;;;;;;5111817;28;20524;-73
2023/04/19 08:15:58;;;;;;;9.38;5.30;;;13.20;99.90;;;;;;5080962;28;20040;-72
2023/04/19 08:18:28;;;;;;;8.38;5.35;;;13.20;99.90;;;;;;5104774;28;20408;-72
2023/04/19 08:20:56;;;;;;;8.95;5.70;;;13.30;99.90;;;;;;5093942;28;20031;-71
2023/04/19 08:23:23;;;;;;;10.63;5.15;;;13.30;99.90;;;;;;5092039;28;20043;-72
2023/04/19 08:26:04;;;;;;;9.02;5.55;;;13.20;99.90;;;;;;5074026;28;20048;-71
2023/04/19 08:28:37;;;;;;;10.95;5.72;;;13.50;99.90;;;;;;5081440;28;20035;-73
2023/04/19 08:31:14;;;;;;;10.18;5.97;;;13.70;99.90;;;;;;5078118;28;20485;-70
2023/04/19 08:33:44;;;;;;;14.93;6.15;;;13.90;99.90;;;;;;5111570;28;20039;-72
2023/04/19 08:36:11;;;;;;;8.43;5.77;;;14.00;99.90;;;;;;5093979;28;20046;-72
2023/04/19 08:38:43;;;;;;;8.32;5.45;;;13.70;99.90;;;;;;5100160;28;20074;-74
2023/04/19 08:41:18;;;;;;;9.00;6.03;;;13.80;99.90;;;;;;5093615;28;20039;-73
2023/04/19 08:43:46;;;;;;;;;;;13.90;99.90;;;;;;5111997;28;20124;-72
2023/04/19 08:46:14;;;;;;;7.40;5.45;;;13.70;99.90;;;;;;5074188;28;19923;-73
2023/04/19 08:48:42;;;;;;;10.05;5.80;;;14.00;99.90;;;;;;5105098;28;20036;-71
2023/04/19 08:51:12;;;;;;;9.65;6.18;;;13.90;99.90;;;;;;5073611;28;20126;-75
2023/04/19 08:53:40;;;;;;;9.35;6.00;;;14.00;99.90;;;;;;5093520;28;20040;-71
2023/04/19 08:56:09;;;;;;;12.25;5.97;;;14.10;99.90;;;;;;5111731;28;20047;-73
2023/04/19 08:58:46;;;;;;;7.35;5.80;;;14.00;99.90;;;;;;5094440;28;20094;-72
2023/04/19 09:01:17;;;;;;;;;;;13.70;99.90;;;;;;5069793;28;20051;-71
2023/04/19 09:03:49;;;;;;;9.98;5.85;;;14.00;99.90;;;;;;5081410;28;19926;-73
2023/04/19 09:06:34;;;;;;;8.68;5.93;;;14.00;99.90;;;;;;5078409;28;20433;-72
2023/04/19 09:09:22;;;;;;;9.32;6.18;;;13.70;99.90;;;;;;5072364;28;20407;-74
2023/04/19 09:12:16;;;;;;;10.02;6.18;;;13.80;99.90;;;;;;5068865;28;20036;-73
2023/04/19 09:14:46;;;;;;;9.02;6.22;;;14.10;99.90;;;;;;5075769;28;20472;-71
2023/04/19 09:17:28;;;;;;;11.07;5.53;;;14.00;99.90;;;;;;5064302;28;20041;-71
2023/04/19 09:19:57;;;;;;;9.15;6.13;;;14.20;99.90;;;;;;5072568;28;20090;-73
2023/04/19 09:22:25;;;;;;;9.23;6.03;;;14.30;99.90;;;;;;5070897;28;20115;-70
2023/04/19 09:24:52;;;;;;;10.98;5.68;;;14.00;99.90;;;;;;5072614;28;20411;-73
2023/04/19 09:27:39;;;;;;;9.68;5.75;;;14.10;99.90;;;;;;5090676;28;20036;-71
2023/04/19 09:30:07;;;;;;;10.18;6.88;;;14.20;99.90;;;;;;5090675;28;20115;-77
2023/04/19 09:32:50;;;;;;;9.32;5.65;;;14.20;99.90;;;;;;5089907;28;20393;-72
2023/04/19 09:35:17;;;;;;;7.95;5.75;;;14.70;99.90;;;;;;5091108;28;20047;-76
2023/04/19 09:38:00;;;;;;;8.90;5.82;;;15.30;99.90;;;;;;5090268;28;20040;-74
2023/04/19 09:40:32;;;;;;;10.80;6.00;;;14.90;99.90;;;;;;5090809;28;20108;-74
2023/04/19 09:43:00;;;;;;;7.22;5.43;;;14.90;99.90;;;;;;5059608;28;20464;-74
2023/04/19 09:45:45;;;;;;;8.27;5.40;;;14.90;99.90;;;;;;5088634;28;20094;-74
2023/04/19 09:48:12;;;;;;;7.47;5.25;;;15.20;99.90;;;;;;5072328;28;20032;-74
2023/04/19 09:50:54;;;;;;;8.73;5.53;;;15.50;99.90;;;;;;5069539;28;20086;-75
2023/04/19 09:53:40;;;;;;;9.80;5.18;;;16.10;99.90;;;;;;5067357;28;20064;-72
2023/04/19 09:56:11;;;;;;;6.40;4.38;;;16.60;99.90;;;;;;5087991;28;20445;-75
2023/04/19 09:58:38;;;;;;;6.05;4.70;;;16.50;99.20;;;;;;5056150;28;20090;-75
2023/04/19 10:01:20;;;;;;;7.70;5.03;;;16.20;99.90;;;;;;5087879;28;20135;-74
2023/04/19 10:03:52;;;;;;;8.67;5.00;;;16.30;99.90;;;;;;5087778;28;20629;-76
2023/04/19 10:06:22;;;;;;;9.07;5.43;;;16.20;99.70;;;;;;5054629;28;20052;-78
2023/04/19 10:10:33;;;;;;;9.30;4.20;;;16.00;99.90;;;;;;5095800;23;20047;-79
2023/04/19 10:13:42;;;;;;;6.00;4.18;;;15.80;99.90;;;;;;5014575;28;20062;-76
2023/04/19 10:16:18;;;;;;;7.55;4.32;;;16.10;99.70;;;;;;5017871;28;20366;-76
2023/04/19 10:18:49;;;;;;;7.57;4.55;;;16.70;99.30;;;;;;5080109;28;20063;-73
2023/04/19 10:21:21;;;;;;;9.75;4.68;;;17.20;98.10;;;;;;5107941;28;20080;-74
2023/04/19 10:23:49;;;;;;;6.93;4.53;;;17.20;96.10;;;;;;5068065;28;20047;-74
2023/04/19 10:26:16;;;;;;;5.75;4.28;;;17.20;96.80;;;;;;5114249;28;20046;-76
2023/04/19 10:28:43;;;;;;;9.90;4.90;;;17.40;96.30;;;;;;5089462;28;20054;-79
2023/04/19 10:31:12;;;;;;;6.18;3.92;;;17.50;95.60;;;;;;5081250;28;20130;-74
2023/04/19 10:33:43;;;;;;;5.45;3.72;;;17.50;95.40;;;;;;5096970;28;20048;-75
2023/04/19 10:36:13;;;;;;;6.13;4.28;;;17.50;95.90;;;;;;5100302;28;20399;-73
2023/04/19 10:38:46;;;;;;;7.72;4.40;;;17.60;95.70;;;;;;5101428;28;20044;-73
2023/04/19 10:41:15;;;;;;;8.35;4.45;;;17.70;95.80;;;;;;5093698;28;20036;-73
2023/04/19 10:43:45;;;;;;;7.00;4.47;;;16.80;96.00;;;;;;5087740;28;20142;-73
2023/04/19 10:46:23;;;;;;;8.07;4.95;;;16.40;97.40;;;;;;5098432;28;20036;-72
2023/04/19 10:48:57;;;;;;;10.32;5.10;;;16.50;98.10;;;;;;5113169;28;20043;-73
2023/04/19 10:51:41;;;;;;;7.55;4.88;;;16.70;97.40;;;;;;5096058;28;20106;-76
2023/04/19 10:54:29;;;;;;;8.43;4.45;;;17.20;97.00;;;;;;5111885;28;20058;-72
2023/04/19 10:57:01;;;;;;;7.68;4.85;;;17.30;96.10;;;;;;5111957;28;20435;-72
2023/04/19 10:59:41;;;;;;;9.25;5.05;;;17.30;97.50;;;;;;5112273;28;20117;-73
2023/04/19 11:02:21;;;;;;;9.40;5.10;;;18.00;96.50;;;;;;5075225;28;20047;-74
2023/04/19 11:04:52;;;;;;;8.38;4.47;;;18.80;94.50;;;;;;5090143;28;20054;-77
2023/04/19 11:07:23;;;;;;;9.80;4.75;;;19.50;93.70;;;;;;5075056;28;20498;-78
2023/04/19 11:09:51;;;;;;;9.90;4.78;;;19.40;92.40;;;;;;5095945;28;20126;-76
2023/04/19 11:12:30;;;;;;;7.95;4.68;;;19.30;91.70;;;;;;5069784;28;20076;-76
2023/04/19 11:15:04;;;;;;;9.02;4.57;;;18.90;90.50;;;;;;5073141;28;20066;-78
2023/04/19 11:17:52;;;;;;;10.18;4.85;;;18.70;91.60;;;;;;5076235;28;20530;-76
2023/04/19 11:20:42;;;;;;;8.50;5.07;;;18.30;91.50;;;;;;5095454;28;20507;-76
2023/04/19 11:23:16;;;;;;;8.10;4.90;;;18.40;92.00;;;;;;5080667;28;20134;-75
2023/04/19 11:25:48;;;;;;;7.80;4.78;;;18.10;92.00;;;;;;5075888;28;20068;-74
2023/04/19 11:28:16;;;;;;;7.28;4.57;;;17.80;92.80;;;;;;5074640;28;20113;-76
2023/04/19 11:30:45;;;;;;;8.88;4.70;;;17.70;93.30;;;;;;5085649;28;20151;-76
2023/04/19 11:33:14;;;;;;;9.77;5.30;;;17.80;93.60;;;;;;5089821;28;20047;-78
2023/04/19 11:35:50;;;;;;;8.20;5.07;;;18.20;93.50;;;;;;5063031;28;20047;-74
2023/04/19 11:41:10;;;;;;;8.80;5.13;;;18.80;91.70;;;;;;5098064;28;20739;-73
2023/04/19 11:43:38;;;;;;;8.77;5.05;;;19.00;91.60;;;;;;5058495;28;20475;-73
2023/04/19 11:46:10;;;;;;;7.95;4.75;;;19.30;90.70;;;;;;5114222;28;20031;-76
2023/04/19 11:49:02;;;;;;;11.38;5.38;;;19.40;90.10;;;;;;5079199;28;20043;-79
2023/04/19 11:51:30;;;;;;;9.40;4.93;;;19.80;87.90;;;;;;5074695;28;20059;-76
2023/04/19 11:53:57;;;;;;;7.40;4.25;;;19.90;86.20;;;;;;5105962;28;20044;-77
2023/04/19 11:56:24;;;;;;;8.95;4.72;;;20.10;85.20;;;;;;5075215;28;20209;-75
2023/04/19 11:58:56;;;;;;;7.47;4.10;;;20.50;84.90;;;;;;5105975;28;20414;-74
2023/04/19 12:01:24;;;;;;;5.78;3.60;;;20.70;81.40;;;;;;5107801;28;20042;-76
2023/04/19 12:03:55;;;;;;;10.35;4.00;;;21.00;81.10;;;;;;5074919;28;20050;-75
2023/04/19 12:06:32;;;;;;;8.23;4.70;;;21.60;77.40;;;;;;5108489;28;20107;-79
2023/04/19 12:09:07;;;;;;;9.63;4.55;;;22.00;76.60;;;;;;5076352;28;20078;-79
2023/04/19 12:11:48;;;;;;;6.88;4.25;;;21.90;74.30;;;;;;5074961;28;20039;-73
2023/04/19 12:14:20;;;;;;;6.82;4.30;;;21.70;74.00;;;;;;5102190;28;20483;-75
2023/04/19 12:17:08;;;;;;;10.50;4.50;;;22.00;74.70;;;;;;5088887;28;20513;-76
2023/04/19 12:19:45;;;;;;;8.85;4.53;;;22.50;74.10;;;;;;5085292;28;20044;-80
2023/04/19 12:22:21;;;;;;;6.57;4.20;;;23.60;70.40;;;;;;5074366;28;20047;-77
2023/04/19 12:24:54;;;;;;;6.03;3.75;;;23.80;66.80;;;;;;5060039;28;20040;-78
2023/04/19 12:27:21;;;;;;;8.57;4.22;;;24.50;65.90;;;;;;5115266;28;20059;-76
2023/04/19 12:29:50;;;;;;;8.25;4.07;;;26.00;63.10;;;;;;5094667;28;20035;-77
2023/04/19 12:32:58;;;;;;;6.75;4.15;;;26.50;59.50;;;;;;5100400;28;20163;-77
2023/04/19 12:35:30;;;;;;;11.38;4.05;;;26.20;58.50;;;;;;5080185;28;20055;-77
2023/04/19 12:37:58;;;;;;;7.18;4.15;;;26.10;58.70;;;;;;5109930;28;20032;-78
2023/04/19 12:40:26;;;;;;;5.95;4.00;;;25.70;57.60;;;;;;5094111;28;20491;-80
2023/04/19 12:42:55;;;;;;;7.55;4.10;;;25.00;58.60;;;;;;5100505;28;20039;-79
2023/04/19 12:45:22;;;;;;;7.10;3.97;;;25.70;57.70;;;;;;5074477;28;20148;-77
2023/04/19 12:50:43;;;;;;;5.93;3.97;;;26.10;55.80;;;;;;5054584;28;20036;-78
2023/04/19 12:53:39;;;;;;;5.85;3.45;;;26.50;54.90;;;;;;5047875;28;20277;-80
2023/04/19 12:56:38;;;;;;;6.85;4.10;;;27.20;54.40;;;;;;5031199;28;20057;-78
2023/04/19 12:59:08;;;;;;;7.03;4.18;;;28.00;54.40;;;;;;5051455;28;20041;-79
2023/04/19 13:02:00;;;;;;;6.82;3.88;;;27.90;53.70;;;;;;5067769;28;20494;-79
2023/04/19 13:04:30;;;;;;;7.68;4.22;;;28.10;52.70;;;;;;5037006;28;20041;-77
2023/04/19 13:06:58;;;;;;;7.97;4.15;;;28.70;52.00;;;;;;5059736;28;20127;-78
2023/04/19 13:09:27;;;;;;;8.25;4.20;;;27.30;53.20;;;;;;5062422;28;20048;-76